createdAt,value
2023-04-23T00:00:24.884Z,6.90
2023-04-23T00:03:13.115Z,6.90
2023-04-23T00:06:01.670Z,6.80
2023-04-23T00:08:50.237Z,6.80
2023-04-23T00:11:42.832Z,6.80
2023-04-23T00:14:33.255Z,6.40
2023-04-23T00:17:23.608Z,6.80
2023-04-23T00:20:11.999Z,6.70
2023-04-23T00:22:59.540Z,6.90
2023-04-23T00:25:47.639Z,6.10
2023-04-23T00:28:37.142Z,7.10
2023-04-23T00:31:27.268Z,7.10
2023-04-23T00:34:14.777Z,7.30
2023-04-23T00:37:06.236Z,7.30
2023-04-23T00:39:53.637Z,7.40
2023-04-23T00:42:42.534Z,9.50
2023-04-23T00:45:31.681Z,7.60
2023-04-23T00:48:20.056Z,7.60
2023-04-23T00:51:09.826Z,7.70
2023-04-23T00:53:58.330Z,7.70
2023-04-23T00:56:45.908Z,7.80
2023-04-23T00:59:33.611Z,7.70
2023-04-23T01:02:22.819Z,7.80
2023-04-23T01:05:11.610Z,7.70
2023-04-23T01:07:59.164Z,8.90
2023-04-23T01:10:49.946Z,7.90
2023-04-23T01:13:37.702Z,7.80
2023-04-23T01:16:24.918Z,7.90
2023-04-23T01:19:16.367Z,7.90
2023-04-23T01:22:04.054Z,7.90
2023-04-23T01:24:53.863Z,7.90
2023-04-23T01:27:41.952Z,7.90
2023-04-23T01:30:29.733Z,7.70
2023-04-23T01:33:17.730Z,7.80
2023-04-23T01:36:08.778Z,7.70
2023-04-23T01:38:56.724Z,7.50
2023-04-23T01:41:45.640Z,7.80
2023-04-23T01:44:33.206Z,8.00
2023-04-23T01:47:21.201Z,7.90
2023-04-23T01:50:09.656Z,7.90
2023-04-23T01:52:57.221Z,7.70
2023-04-23T01:55:46.673Z,8.10
2023-04-23T01:58:35.533Z,8.20
2023-04-23T02:01:23.387Z,8.30
2023-04-23T02:04:13.303Z,8.30
2023-04-23T02:07:01.929Z,7.50
2023-04-23T02:09:49.239Z,8.30
2023-04-23T02:12:39.219Z,8.70
2023-04-23T02:15:28.059Z,8.60
2023-04-23T02:18:15.952Z,8.50
2023-04-23T02:21:07.032Z,8.40
2023-04-23T02:23:54.537Z,10.00
2023-04-23T02:26:41.785Z,8.40
2023-04-23T02:29:29.874Z,8.40
2023-04-23T02:32:21.958Z,8.40
2023-04-23T02:35:10.653Z,8.30
2023-04-23T02:37:58.044Z,8.30
2023-04-23T02:40:45.333Z,8.30
2023-04-23T02:43:32.559Z,8.20
2023-04-23T02:46:20.568Z,8.10
2023-04-23T02:49:09.728Z,8.10
2023-04-23T02:51:57.910Z,8.00
2023-04-23T02:54:46.525Z,7.90
2023-04-23T02:57:34.658Z,7.90
2023-04-23T03:00:25.442Z,7.80
2023-04-23T03:03:12.975Z,7.70
2023-04-23T03:06:03.034Z,7.70
2023-04-23T03:08:51.526Z,7.80
2023-04-23T03:11:39.349Z,7.60
2023-04-23T03:14:29.527Z,7.50
2023-04-23T03:17:16.949Z,7.40
2023-04-23T03:20:04.739Z,7.40
2023-04-23T03:22:55.042Z,7.30
2023-04-23T03:25:49.325Z,7.30
2023-04-23T03:28:37.231Z,7.30
2023-04-23T03:31:27.295Z,7.30
2023-04-23T03:34:16.259Z,6.70
2023-04-23T03:37:05.040Z,7.20
2023-04-23T03:39:55.940Z,6.80
2023-04-23T03:42:46.113Z,7.10
2023-04-23T03:45:35.461Z,6.60
2023-04-23T03:48:23.420Z,7.10
2023-04-23T03:51:11.056Z,8.30
2023-04-23T03:54:04.986Z,7.00
2023-04-23T03:56:59.497Z,8.10
2023-04-23T03:59:55.292Z,7.00
2023-04-23T04:02:43.996Z,7.00
2023-04-23T04:05:31.878Z,7.00
2023-04-23T04:08:19.333Z,6.90
2023-04-23T04:11:06.761Z,4.50
2023-04-23T04:13:55.694Z,7.60
2023-04-23T04:16:43.276Z,6.90
2023-04-23T04:19:30.507Z,6.80
2023-04-23T04:22:17.813Z,6.70
2023-04-23T04:25:07.183Z,6.80
2023-04-23T04:27:55.817Z,6.80
2023-04-23T04:30:45.936Z,6.70
2023-04-23T04:33:34.525Z,6.70
2023-04-23T04:36:23.239Z,6.60
2023-04-23T04:39:10.824Z,6.70
2023-04-23T04:42:00.182Z,6.70
2023-04-23T04:44:47.969Z,6.70
2023-04-23T04:47:37.767Z,6.80
2023-04-23T04:50:25.783Z,6.80
2023-04-23T04:53:13.752Z,6.80
2023-04-23T04:56:01.646Z,6.80
2023-04-23T04:58:49.738Z,6.80
2023-04-23T05:01:39.882Z,6.80
2023-04-23T05:04:29.167Z,6.90
2023-04-23T05:07:17.575Z,6.80
2023-04-23T05:10:05.342Z,6.80
2023-04-23T05:12:52.974Z,6.90
2023-04-23T05:15:40.620Z,6.90
2023-04-23T05:18:28.282Z,7.10
2023-04-23T05:21:19.311Z,7.00
2023-04-23T05:24:07.580Z,7.10
2023-04-23T05:26:55.182Z,7.10
2023-04-23T05:29:43.173Z,7.10
2023-04-23T05:32:30.860Z,7.20
2023-04-23T05:35:18.568Z,7.20
2023-04-23T05:38:08.081Z,7.30
2023-04-23T05:40:56.079Z,7.40
2023-04-23T05:43:44.220Z,7.60
2023-04-23T05:46:31.840Z,8.80
2023-04-23T05:49:19.521Z,7.60
2023-04-23T05:52:07.153Z,7.70
2023-04-23T05:54:56.222Z,7.70
2023-04-23T05:57:46.613Z,7.90
2023-04-23T06:00:35.677Z,8.00
2023-04-23T06:03:24.013Z,8.30
2023-04-23T06:06:11.824Z,8.60
2023-04-23T06:09:00.107Z,8.80
2023-04-23T06:11:50.831Z,8.90
2023-04-23T06:14:39.679Z,9.00
2023-04-23T06:17:27.767Z,8.70
2023-04-23T06:20:15.784Z,9.00
2023-04-23T06:23:03.873Z,10.20
2023-04-23T06:25:51.398Z,9.00
2023-04-23T06:28:42.443Z,9.00
2023-04-23T06:31:53.091Z,9.00
2023-04-23T06:34:53.210Z,9.20
2023-04-23T06:37:45.475Z,11.60
2023-04-23T06:40:33.694Z,9.10
2023-04-23T06:43:21.281Z,10.20
2023-04-23T06:46:30.503Z,9.20
2023-04-23T06:49:21.430Z,9.30
2023-04-23T06:52:09.096Z,9.40
2023-04-23T06:54:56.516Z,11.60
2023-04-23T06:57:44.010Z,9.90
2023-04-23T07:00:31.656Z,9.60
2023-04-23T07:03:23.273Z,9.60
2023-04-23T07:06:11.152Z,9.70
2023-04-23T07:09:00.013Z,9.80
2023-04-23T07:11:47.641Z,9.80
2023-04-23T07:14:35.220Z,10.00
2023-04-23T07:17:26.189Z,9.90
2023-04-23T07:20:16.123Z,10.60
2023-04-23T07:23:04.404Z,10.10
2023-04-23T07:25:54.584Z,10.20
2023-04-23T07:28:42.854Z,10.40
2023-04-23T07:31:31.283Z,10.40
2023-04-23T07:34:18.708Z,10.40
2023-04-23T07:37:09.845Z,10.80
2023-04-23T07:39:57.226Z,10.60
2023-04-23T07:42:44.996Z,10.70
2023-04-23T07:45:35.598Z,9.90
2023-04-23T07:48:23.246Z,11.60
2023-04-23T07:51:11.313Z,11.20
2023-04-23T07:54:00.574Z,11.60
2023-04-23T07:56:48.102Z,11.30
2023-04-23T07:59:36.257Z,11.40
2023-04-23T08:02:26.748Z,11.80
2023-04-23T08:05:15.014Z,11.70
2023-04-23T08:08:03.407Z,11.80
2023-04-23T08:10:52.367Z,12.00
2023-04-23T08:13:39.798Z,15.00
2023-04-23T08:16:28.207Z,13.70
2023-04-23T08:19:15.534Z,12.60
2023-04-23T08:22:03.381Z,12.70
2023-04-23T08:24:50.785Z,13.10
2023-04-23T08:27:45.743Z,13.30
2023-04-23T08:30:33.304Z,12.80
2023-04-23T08:33:21.123Z,13.60
2023-04-23T08:36:09.453Z,13.70
2023-04-23T08:38:56.730Z,14.00
2023-04-23T08:41:46.606Z,13.80
2023-04-23T08:44:37.750Z,14.20
2023-04-23T08:47:25.990Z,13.00
2023-04-23T08:50:18.884Z,14.40
2023-04-23T08:53:07.680Z,14.40
2023-04-23T08:55:55.977Z,15.20
2023-04-23T08:58:45.069Z,14.80
2023-04-23T09:01:37.233Z,13.70
2023-04-23T09:04:26.960Z,15.70
2023-04-23T09:07:15.404Z,14.60
2023-04-23T09:10:02.872Z,15.00
2023-04-23T09:12:50.372Z,14.90
2023-04-23T09:15:43.603Z,15.40
2023-04-23T09:18:33.083Z,15.50
2023-04-23T09:21:22.157Z,15.60
2023-04-23T09:24:12.515Z,15.80
2023-04-23T09:27:01.159Z,15.90
2023-04-23T09:29:53.802Z,16.00
2023-04-23T09:32:47.234Z,15.90
2023-04-23T09:35:38.502Z,15.90
2023-04-23T09:38:32.013Z,16.10
2023-04-23T09:41:23.591Z,16.50
2023-04-23T09:44:12.486Z,16.50
2023-04-23T09:47:12.317Z,18.40
2023-04-23T09:50:07.970Z,16.70
2023-04-23T09:52:57.436Z,16.60
2023-04-23T09:55:46.277Z,16.50
2023-04-23T09:58:34.173Z,16.40
2023-04-23T10:01:31.569Z,16.30
2023-04-23T10:04:21.185Z,16.50
2023-04-23T10:10:08.272Z,16.50
2023-04-23T10:12:57.433Z,16.70
2023-04-23T10:15:47.719Z,16.80
2023-04-23T10:18:37.896Z,17.10
2023-04-23T10:21:42.600Z,17.20
2023-04-23T10:24:41.734Z,17.60
2023-04-23T10:27:51.287Z,17.40
2023-04-23T10:30:42.243Z,17.50
2023-04-23T10:33:35.157Z,15.40
2023-04-23T10:36:29.193Z,15.00
2023-04-23T10:39:27.286Z,16.70
2023-04-23T10:42:18.314Z,16.80
2023-04-23T10:45:23.335Z,17.10
2023-04-23T10:48:18.065Z,17.20
2023-04-23T10:51:30.534Z,17.10
2023-04-23T10:54:16.130Z,16.70
2023-04-23T10:57:05.186Z,16.90
2023-04-23T10:59:53.947Z,16.80
2023-04-23T11:02:48.744Z,16.60
2023-04-23T11:05:36.807Z,17.50
2023-04-23T11:08:24.947Z,16.90
2023-04-23T11:11:13.112Z,17.10
2023-04-23T11:14:14.319Z,17.30
2023-04-23T11:17:02.177Z,17.30
2023-04-23T11:20:11.516Z,17.20
2023-04-23T11:22:59.128Z,17.10
2023-04-23T11:25:48.253Z,17.10
2023-04-23T11:28:37.228Z,17.20
2023-04-23T11:31:24.959Z,17.30
2023-04-23T11:34:12.874Z,17.50
2023-04-23T11:37:05.193Z,17.70
2023-04-23T11:39:53.570Z,18.00
2023-04-23T11:42:46.723Z,18.20
2023-04-23T11:45:34.668Z,18.10
2023-04-23T11:48:25.529Z,18.20
2023-04-23T11:51:13.353Z,18.00
2023-04-23T11:54:06.770Z,18.20
2023-04-23T11:56:54.964Z,18.30
2023-04-23T11:59:42.791Z,18.70
2023-04-23T12:02:30.871Z,18.90
2023-04-23T12:05:21.870Z,19.20
2023-04-23T12:08:10.310Z,18.70
2023-04-23T12:11:01.708Z,18.20
2023-04-23T12:13:49.581Z,17.60
2023-04-23T12:16:39.391Z,16.90
2023-04-23T12:19:29.663Z,16.60
2023-04-23T12:22:17.243Z,16.40
2023-04-23T12:25:08.004Z,16.00
2023-04-23T12:28:00.196Z,15.60
2023-04-23T12:30:48.110Z,15.00
2023-04-23T12:33:38.706Z,14.70
2023-04-23T12:36:31.034Z,14.50
2023-04-23T12:39:25.504Z,14.30
2023-04-23T12:42:13.292Z,13.90
2023-04-23T12:45:08.683Z,13.70
2023-04-23T12:47:56.600Z,13.50
2023-04-23T12:50:43.954Z,13.40
2023-04-23T12:53:31.410Z,13.20
2023-04-23T12:56:18.938Z,13.10
2023-04-23T12:59:06.778Z,13.00
2023-04-23T13:01:56.010Z,12.90
2023-04-23T13:04:43.390Z,12.90
2023-04-23T13:07:31.592Z,13.30
2023-04-23T13:10:19.776Z,13.10
2023-04-23T13:13:07.141Z,13.10
2023-04-23T13:15:54.666Z,13.10
2023-04-23T13:18:44.259Z,13.20
2023-04-23T13:21:32.247Z,13.00
2023-04-23T13:24:20.481Z,13.10
2023-04-23T13:27:08.824Z,13.00
2023-04-23T13:29:56.845Z,12.90
2023-04-23T13:32:45.178Z,12.90
2023-04-23T13:35:38.058Z,13.60
2023-04-23T13:38:25.963Z,13.20
2023-04-23T13:41:15.138Z,13.20
2023-04-23T13:44:05.330Z,13.10
2023-04-23T13:46:53.445Z,13.00
2023-04-23T13:49:42.388Z,13.40
2023-04-23T13:52:35.106Z,12.80
2023-04-23T13:55:23.558Z,12.70
2023-04-23T13:58:12.352Z,12.50
2023-04-23T14:01:00.753Z,12.40
2023-04-23T14:03:48.461Z,12.00
2023-04-23T14:06:36.907Z,12.20
2023-04-23T14:09:31.749Z,12.30
2023-04-23T14:12:21.227Z,12.50
2023-04-23T14:15:11.068Z,12.40
2023-04-23T14:17:59.867Z,15.00
2023-04-23T14:20:47.356Z,12.40
2023-04-23T14:23:46.158Z,12.30
2023-04-23T14:26:47.818Z,12.30
2023-04-23T14:29:42.300Z,12.10
2023-04-23T14:32:30.115Z,12.20
2023-04-23T14:35:22.701Z,14.10
2023-04-23T14:38:14.052Z,13.40
2023-04-23T14:41:05.122Z,12.40
2023-04-23T14:43:56.252Z,12.50
2023-04-23T14:46:44.431Z,12.70
2023-04-23T14:49:32.762Z,12.80
2023-04-23T14:52:20.860Z,13.20
2023-04-23T14:55:09.259Z,12.90
2023-04-23T14:57:57.153Z,13.30
2023-04-23T15:00:51.097Z,13.20
2023-04-23T15:03:38.969Z,14.00
2023-04-23T15:06:29.650Z,13.70
2023-04-23T15:09:18.612Z,13.20
2023-04-23T15:12:07.913Z,12.60
2023-04-23T15:14:56.314Z,13.90
2023-04-23T15:17:46.067Z,14.00
2023-04-23T15:20:34.022Z,14.00
2023-04-23T15:23:24.317Z,14.00
2023-04-23T15:26:12.809Z,13.80
2023-04-23T15:29:01.400Z,13.80
2023-04-23T15:31:51.855Z,13.80
2023-04-23T15:34:41.495Z,13.30
2023-04-23T15:37:30.157Z,13.80
2023-04-23T15:40:18.685Z,14.10
2023-04-23T15:43:06.226Z,13.60
2023-04-23T15:45:58.854Z,13.50
2023-04-23T15:48:46.996Z,13.70
2023-04-23T15:51:36.309Z,12.00
2023-04-23T15:54:27.154Z,13.40
2023-04-23T15:57:15.289Z,13.70
2023-04-23T16:00:03.077Z,13.40
2023-04-23T16:03:01.298Z,13.30
2023-04-23T16:05:51.100Z,13.30
2023-04-23T16:08:41.027Z,13.30
2023-04-23T16:11:29.580Z,13.30
2023-04-23T16:14:16.995Z,14.50
2023-04-23T16:17:05.832Z,13.60
2023-04-23T16:19:55.660Z,13.70
2023-04-23T16:22:43.602Z,13.40
2023-04-23T16:25:32.675Z,13.60
2023-04-23T16:28:20.877Z,13.60
2023-04-23T16:31:08.782Z,13.60
2023-04-23T16:33:56.699Z,13.60
2023-04-23T16:36:44.103Z,13.60
2023-04-23T16:39:32.251Z,13.60
2023-04-23T16:42:22.082Z,13.60
2023-04-23T16:45:10.253Z,13.30
2023-04-23T16:47:58.094Z,13.30
2023-04-23T16:50:45.746Z,12.60
2023-04-23T16:53:35.723Z,12.80
2023-04-23T16:56:26.918Z,12.40
2023-04-23T16:59:16.996Z,12.40
2023-04-23T17:02:05.783Z,12.30
2023-04-23T17:04:53.484Z,12.00
2023-04-23T17:07:44.042Z,11.90
2023-04-23T17:10:32.161Z,11.50
2023-04-23T17:13:20.201Z,11.30
2023-04-23T17:16:09.901Z,11.10
2023-04-23T17:18:57.805Z,11.20
2023-04-23T17:21:46.176Z,11.10
2023-04-23T17:24:39.031Z,10.50
2023-04-23T17:27:29.484Z,10.70
2023-04-23T17:30:17.127Z,10.20
2023-04-23T17:33:06.967Z,10.00
2023-04-23T17:35:55.542Z,10.00
2023-04-23T17:38:43.981Z,9.80
2023-04-23T17:41:31.867Z,11.90
2023-04-23T17:44:20.320Z,9.80
2023-04-23T17:47:10.419Z,10.30
2023-04-23T17:49:59.943Z,10.30
2023-04-23T17:52:49.455Z,9.70
2023-04-23T17:55:37.981Z,9.70
2023-04-23T17:58:26.936Z,9.60
2023-04-23T18:01:15.605Z,9.50
2023-04-23T18:04:06.552Z,9.50
2023-04-23T18:06:57.436Z,9.90
2023-04-23T18:09:45.336Z,9.50
2023-04-23T18:12:33.153Z,9.40
2023-04-23T18:15:21.151Z,9.50
2023-04-23T18:18:11.460Z,9.40
2023-04-23T18:20:59.473Z,9.10
2023-04-23T18:23:54.977Z,9.40
2023-04-23T18:26:45.860Z,9.30
2023-04-23T18:29:33.430Z,10.10
2023-04-23T18:32:33.540Z,9.10
2023-04-23T18:35:22.299Z,9.30
2023-04-23T18:38:11.618Z,9.10
2023-04-23T18:41:03.206Z,9.10
2023-04-23T18:43:56.974Z,9.00
2023-04-23T18:46:44.621Z,9.00
2023-04-23T18:49:40.662Z,8.90
2023-04-23T18:52:28.843Z,8.00
2023-04-23T18:55:16.610Z,8.90
2023-04-23T18:58:07.195Z,9.00
2023-04-23T19:00:54.686Z,9.40
2023-04-23T19:03:42.972Z,8.90
2023-04-23T19:06:31.361Z,9.00
2023-04-23T19:09:19.016Z,9.00
2023-04-23T19:12:07.296Z,9.00
2023-04-23T19:14:57.255Z,9.00
2023-04-23T19:17:45.212Z,8.70
2023-04-23T19:20:33.281Z,9.00
2023-04-23T19:23:20.744Z,9.00
2023-04-23T19:26:10.621Z,9.10
2023-04-23T19:28:59.126Z,9.10
2023-04-23T19:31:48.941Z,8.90
2023-04-23T19:34:37.253Z,9.10
2023-04-23T19:37:27.787Z,9.10
2023-04-23T19:40:16.489Z,9.20
2023-04-23T19:43:07.675Z,9.20
2023-04-23T19:46:02.814Z,9.20
2023-04-23T19:48:52.016Z,9.30
2023-04-23T19:51:40.969Z,9.30
2023-04-23T19:54:28.330Z,9.20
2023-04-23T19:57:18.551Z,9.20
2023-04-23T20:00:07.279Z,9.20
2023-04-23T20:02:58.028Z,9.20
2023-04-23T20:05:52.520Z,9.20
2023-04-23T20:09:02.749Z,9.20
2023-04-23T20:11:50.419Z,9.60
2023-04-23T20:14:38.176Z,9.30
2023-04-23T20:17:28.698Z,9.30
2023-04-23T20:20:21.864Z,9.40
2023-04-23T20:23:11.920Z,10.00
2023-04-23T20:25:59.833Z,9.40
2023-04-23T20:28:48.461Z,9.30
2023-04-23T20:31:35.847Z,9.50
2023-04-23T20:34:27.059Z,11.00
2023-04-23T20:37:21.763Z,11.90
2023-04-23T20:40:12.964Z,9.50
2023-04-23T20:43:00.471Z,9.80
2023-04-23T20:45:49.630Z,9.70
2023-04-23T20:48:37.190Z,9.40
2023-04-23T20:51:25.352Z,9.40
2023-04-23T20:54:12.941Z,9.50
2023-04-23T20:57:03.453Z,9.50
2023-04-23T20:59:53.892Z,9.60
2023-04-23T21:02:42.082Z,9.50
2023-04-23T21:05:30.599Z,9.80
2023-04-23T21:08:21.133Z,9.80
2023-04-23T21:11:11.429Z,9.80
2023-04-23T21:14:01.637Z,9.60
2023-04-23T21:16:49.571Z,9.30
2023-04-23T21:19:37.376Z,9.70
2023-04-23T21:22:26.176Z,9.70
2023-04-23T21:25:14.046Z,9.60
2023-04-23T21:28:02.540Z,9.50
2023-04-23T21:30:52.382Z,9.70
2023-04-23T21:33:40.678Z,9.30
2023-04-23T21:36:30.048Z,8.30
2023-04-23T21:39:17.880Z,9.10
2023-04-23T21:42:08.912Z,9.30
2023-04-23T21:45:13.029Z,9.10
2023-04-23T21:48:15.087Z,9.40
2023-04-23T21:51:06.969Z,11.60
2023-04-23T21:53:55.599Z,6.90
2023-04-23T21:56:43.795Z,10.40
2023-04-23T21:59:38.576Z,9.00
2023-04-23T22:02:29.392Z,9.00
2023-04-23T22:05:21.408Z,9.00
2023-04-23T22:08:20.090Z,9.10
2023-04-23T22:11:14.016Z,10.40
2023-04-23T22:14:18.317Z,9.30
2023-04-23T22:17:07.762Z,10.10
2023-04-23T22:19:55.883Z,8.90
2023-04-23T22:22:48.094Z,8.90
2023-04-23T22:25:36.797Z,8.80
2023-04-23T22:28:25.444Z,8.30
2023-04-23T22:31:16.092Z,8.90
2023-04-23T22:34:03.969Z,8.90
2023-04-23T22:36:51.716Z,8.60
2023-04-23T22:39:41.729Z,8.90
2023-04-23T22:42:30.531Z,8.90
2023-04-23T22:45:18.713Z,9.80
2023-04-23T22:48:06.874Z,9.00
2023-04-23T22:50:54.423Z,10.30
2023-04-23T22:53:44.789Z,8.90
2023-04-23T22:56:34.744Z,8.80
2023-04-23T22:59:22.386Z,8.80
2023-04-23T23:02:10.031Z,8.90
2023-04-23T23:04:57.564Z,8.80
2023-04-23T23:07:46.277Z,8.90
2023-04-23T23:10:33.750Z,8.80
2023-04-23T23:13:23.385Z,8.80
2023-04-23T23:16:11.654Z,10.70
2023-04-23T23:18:59.930Z,8.90
2023-04-23T23:21:50.235Z,8.80
2023-04-23T23:24:37.844Z,8.80
2023-04-23T23:27:26.098Z,8.80
2023-04-23T23:30:15.826Z,8.80
2023-04-23T23:33:03.198Z,8.80
2023-04-23T23:35:50.915Z,8.80
2023-04-23T23:38:38.749Z,8.80
2023-04-23T23:41:26.540Z,8.80
2023-04-23T23:44:14.287Z,8.80
2023-04-23T23:47:03.795Z,11.60
2023-04-23T23:49:51.900Z,8.80
2023-04-23T23:52:39.848Z,8.80
2023-04-23T23:55:27.734Z,8.80
2023-04-23T23:58:18.384Z,9.10
